Hallett, Oklahoma
Current Conditions -  °F | °C
As of 2:15 PM on Friday 19 Dec 2014 (Local Time) from KCUH Reporting Station
Overcast Overcast  
Wind Chill: 39°   Ceiling: 1200
Heat Index: 39°   Visibility: 10mi
Dew Point: 39°   Wind: 3mph
Humidity: 100%   Direction: 350°N
Pressure: 30.2"   Gusts: NA
Location:  36.23°N, 96.57°W
Report Text: KCUH 192015Z AUTO 35003KT 10SM OVC012 04/04 A3020 RMK AO2
Loading
Personal Weather Stations






























Interactive Weather Map New forecast layout! Learn more

10-Day Weather Forecast

Advertisements
Track Severe Weather on mobile